sensor_id;sensor_type;location;lat;lon;timestamp;P1;durP1;ratioP1;P2;durP2;ratioP2
72127;SDS011;60000;51.030;7.024;2022-08-25T00:00:19;7.28;;;1.65;;
72127;SDS011;60000;51.030;7.024;2022-08-25T00:02:45;6.10;;;1.70;;
72127;SDS011;60000;51.030;7.024;2022-08-25T00:05:10;6.70;;;1.83;;
72127;SDS011;60000;51.030;7.024;2022-08-25T00:07:36;6.23;;;1.97;;
72127;SDS011;60000;51.030;7.024;2022-08-25T00:10:02;4.67;;;1.80;;
72127;SDS011;60000;51.030;7.024;2022-08-25T00:12:31;4.63;;;1.80;;
72127;SDS011;60000;51.030;7.024;2022-08-25T00:14:57;4.93;;;1.80;;
72127;SDS011;60000;51.030;7.024;2022-08-25T00:17:22;5.47;;;2.00;;
72127;SDS011;60000;51.030;7.024;2022-08-25T00:19:48;4.73;;;1.63;;
72127;SDS011;60000;51.030;7.024;2022-08-25T00:22:13;6.37;;;1.93;;
72127;SDS011;60000;51.030;7.024;2022-08-25T00:24:38;6.20;;;2.00;;
72127;SDS011;60000;51.030;7.024;2022-08-25T00:27:04;5.10;;;2.27;;
72127;SDS011;60000;51.030;7.024;2022-08-25T00:29:30;5.88;;;2.10;;
72127;SDS011;60000;51.030;7.024;2022-08-25T00:31:56;6.53;;;2.00;;
72127;SDS011;60000;51.030;7.024;2022-08-25T00:34:24;4.65;;;1.90;;
72127;SDS011;60000;51.030;7.024;2022-08-25T00:36:52;7.37;;;2.20;;
72127;SDS011;60000;51.030;7.024;2022-08-25T00:39:18;7.13;;;2.30;;
72127;SDS011;60000;51.030;7.024;2022-08-25T00:41:45;5.10;;;2.10;;
72127;SDS011;60000;51.030;7.024;2022-08-25T00:44:12;4.50;;;1.83;;
72127;SDS011;60000;51.030;7.024;2022-08-25T00:46:52;5.17;;;2.13;;
72127;SDS011;60000;51.030;7.024;2022-08-25T00:49:24;6.07;;;2.00;;
72127;SDS011;60000;51.030;7.024;2022-08-25T00:51:52;12.65;;;2.35;;
72127;SDS011;60000;51.030;7.024;2022-08-25T00:54:24;7.25;;;1.90;;
72127;SDS011;60000;51.030;7.024;2022-08-25T00:56:54;5.07;;;1.98;;
72127;SDS011;60000;51.030;7.024;2022-08-25T00:59:22;7.03;;;2.27;;
72127;SDS011;60000;51.030;7.024;2022-08-25T01:01:50;5.78;;;2.13;;
72127;SDS011;60000;51.030;7.024;2022-08-25T01:04:17;4.60;;;2.00;;
72127;SDS011;60000;51.030;7.024;2022-08-25T01:06:43;4.82;;;2.03;;
72127;SDS011;60000;51.030;7.024;2022-08-25T01:09:10;4.60;;;1.90;;
72127;SDS011;60000;51.030;7.024;2022-08-25T01:11:37;4.57;;;1.85;;
72127;SDS011;60000;51.030;7.024;2022-08-25T01:14:04;5.10;;;2.08;;
72127;SDS011;60000;51.030;7.024;2022-08-25T01:16:34;4.80;;;2.15;;
72127;SDS011;60000;51.030;7.024;2022-08-25T01:19:01;4.10;;;1.90;;
72127;SDS011;60000;51.030;7.024;2022-08-25T01:21:28;6.33;;;2.20;;
72127;SDS011;60000;51.030;7.024;2022-08-25T01:23:57;5.30;;;2.33;;
72127;SDS011;60000;51.030;7.024;2022-08-25T01:26:25;7.57;;;2.00;;
72127;SDS011;60000;51.030;7.024;2022-08-25T01:28:53;5.15;;;2.30;;
72127;SDS011;60000;51.030;7.024;2022-08-25T01:31:37;6.83;;;2.10;;
72127;SDS011;60000;51.030;7.024;2022-08-25T01:34:04;5.40;;;1.98;;
72127;SDS011;60000;51.030;7.024;2022-08-25T01:36:31;4.72;;;1.92;;
72127;SDS011;60000;51.030;7.024;2022-08-25T01:38:57;5.63;;;2.72;;
72127;SDS011;60000;51.030;7.024;2022-08-25T01:43:54;5.70;;;2.30;;
72127;SDS011;60000;51.030;7.024;2022-08-25T01:46:20;4.55;;;1.92;;
72127;SDS011;60000;51.030;7.024;2022-08-25T01:48:45;4.83;;;1.80;;
72127;SDS011;60000;51.030;7.024;2022-08-25T01:51:13;5.25;;;2.08;;
72127;SDS011;60000;51.030;7.024;2022-08-25T01:53:40;4.57;;;2.00;;
72127;SDS011;60000;51.030;7.024;2022-08-25T01:56:13;5.33;;;2.00;;
72127;SDS011;60000;51.030;7.024;2022-08-25T01:58:44;5.40;;;2.20;;
72127;SDS011;60000;51.030;7.024;2022-08-25T02:01:12;5.30;;;2.30;;
72127;SDS011;60000;51.030;7.024;2022-08-25T02:03:47;5.80;;;2.13;;
72127;SDS011;60000;51.030;7.024;2022-08-25T02:06:16;5.18;;;2.28;;
72127;SDS011;60000;51.030;7.024;2022-08-25T02:08:48;5.15;;;2.15;;
72127;SDS011;60000;51.030;7.024;2022-08-25T02:11:15;6.57;;;2.70;;
72127;SDS011;60000;51.030;7.024;2022-08-25T02:13:41;5.93;;;2.20;;
72127;SDS011;60000;51.030;7.024;2022-08-25T02:16:06;5.80;;;2.42;;
72127;SDS011;60000;51.030;7.024;2022-08-25T02:18:34;4.77;;;2.10;;
72127;SDS011;60000;51.030;7.024;2022-08-25T02:21:00;7.30;;;2.03;;
72127;SDS011;60000;51.030;7.024;2022-08-25T02:23:25;6.33;;;2.37;;
72127;SDS011;60000;51.030;7.024;2022-08-25T02:25:51;8.40;;;2.25;;
72127;SDS011;60000;51.030;7.024;2022-08-25T02:28:16;5.37;;;2.27;;
72127;SDS011;60000;51.030;7.024;2022-08-25T02:30:41;6.77;;;2.67;;
72127;SDS011;60000;51.030;7.024;2022-08-25T02:33:07;5.20;;;2.10;;
72127;SDS011;60000;51.030;7.024;2022-08-25T02:35:34;4.88;;;1.95;;
72127;SDS011;60000;51.030;7.024;2022-08-25T02:37:59;6.35;;;2.25;;
72127;SDS011;60000;51.030;7.024;2022-08-25T02:40:25;6.17;;;2.40;;
72127;SDS011;60000;51.030;7.024;2022-08-25T02:42:51;9.35;;;3.40;;
72127;SDS011;60000;51.030;7.024;2022-08-25T02:45:17;6.00;;;2.30;;
72127;SDS011;60000;51.030;7.024;2022-08-25T02:47:43;7.43;;;2.30;;
72127;SDS011;60000;51.030;7.024;2022-08-25T02:50:08;5.00;;;2.30;;
72127;SDS011;60000;51.030;7.024;2022-08-25T02:52:35;7.20;;;2.00;;
72127;SDS011;60000;51.030;7.024;2022-08-25T02:55:01;5.00;;;1.92;;
72127;SDS011;60000;51.030;7.024;2022-08-25T02:57:29;6.70;;;2.30;;
72127;SDS011;60000;51.030;7.024;2022-08-25T02:59:54;4.60;;;2.28;;
72127;SDS011;60000;51.030;7.024;2022-08-25T03:02:20;5.53;;;2.45;;
72127;SDS011;60000;51.030;7.024;2022-08-25T03:04:45;5.67;;;2.40;;
72127;SDS011;60000;51.030;7.024;2022-08-25T03:07:11;5.67;;;2.43;;
72127;SDS011;60000;51.030;7.024;2022-08-25T03:09:37;5.30;;;2.28;;
72127;SDS011;60000;51.030;7.024;2022-08-25T03:12:02;5.63;;;2.47;;
72127;SDS011;60000;51.030;7.024;2022-08-25T03:14:29;7.63;;;2.30;;
72127;SDS011;60000;51.030;7.024;2022-08-25T03:16:54;5.87;;;2.40;;
72127;SDS011;60000;51.030;7.024;2022-08-25T03:19:20;7.35;;;2.58;;
72127;SDS011;60000;51.030;7.024;2022-08-25T03:21:45;6.03;;;2.70;;
72127;SDS011;60000;51.030;7.024;2022-08-25T03:24:11;6.60;;;2.73;;
72127;SDS011;60000;51.030;7.024;2022-08-25T03:26:37;5.10;;;2.83;;
72127;SDS011;60000;51.030;7.024;2022-08-25T03:29:19;6.97;;;2.55;;
72127;SDS011;60000;51.030;7.024;2022-08-25T03:31:45;7.97;;;2.40;;
72127;SDS011;60000;51.030;7.024;2022-08-25T03:34:11;5.60;;;2.25;;
72127;SDS011;60000;51.030;7.024;2022-08-25T03:36:38;6.32;;;2.22;;
72127;SDS011;60000;51.030;7.024;2022-08-25T03:39:03;5.17;;;2.10;;
72127;SDS011;60000;51.030;7.024;2022-08-25T03:41:30;5.80;;;2.28;;
72127;SDS011;60000;51.030;7.024;2022-08-25T03:43:59;7.10;;;2.60;;
72127;SDS011;60000;51.030;7.024;2022-08-25T03:46:26;5.60;;;2.60;;
72127;SDS011;60000;51.030;7.024;2022-08-25T03:48:59;8.65;;;2.40;;
72127;SDS011;60000;51.030;7.024;2022-08-25T03:51:27;5.75;;;2.40;;
72127;SDS011;60000;51.030;7.024;2022-08-25T03:53:57;9.20;;;2.38;;
72127;SDS011;60000;51.030;7.024;2022-08-25T03:56:23;6.90;;;2.30;;
72127;SDS011;60000;51.030;7.024;2022-08-25T03:58:51;5.90;;;2.53;;
72127;SDS011;60000;51.030;7.024;2022-08-25T04:01:16;9.40;;;2.67;;
72127;SDS011;60000;51.030;7.024;2022-08-25T04:03:42;5.23;;;2.40;;
72127;SDS011;60000;51.030;7.024;2022-08-25T04:06:07;6.83;;;2.50;;
72127;SDS011;60000;51.030;7.024;2022-08-25T04:08:33;6.88;;;2.72;;
72127;SDS011;60000;51.030;7.024;2022-08-25T04:11:04;7.80;;;3.65;;
72127;SDS011;60000;51.030;7.024;2022-08-25T04:13:30;8.00;;;3.47;;
72127;SDS011;60000;51.030;7.024;2022-08-25T04:15:56;8.45;;;2.95;;
72127;SDS011;60000;51.030;7.024;2022-08-25T04:18:21;6.83;;;2.87;;
72127;SDS011;60000;51.030;7.024;2022-08-25T04:20:46;6.27;;;2.77;;
72127;SDS011;60000;51.030;7.024;2022-08-25T04:23:12;10.73;;;2.77;;
72127;SDS011;60000;51.030;7.024;2022-08-25T04:25:39;6.87;;;3.10;;
72127;SDS011;60000;51.030;7.024;2022-08-25T04:28:08;6.10;;;2.92;;
72127;SDS011;60000;51.030;7.024;2022-08-25T04:30:34;6.85;;;2.95;;
72127;SDS011;60000;51.030;7.024;2022-08-25T04:33:00;5.60;;;2.70;;
72127;SDS011;60000;51.030;7.024;2022-08-25T04:35:25;6.17;;;2.70;;
72127;SDS011;60000;51.030;7.024;2022-08-25T04:37:50;6.10;;;2.73;;
72127;SDS011;60000;51.030;7.024;2022-08-25T04:40:16;5.40;;;2.70;;
72127;SDS011;60000;51.030;7.024;2022-08-25T04:42:41;7.93;;;2.90;;
72127;SDS011;60000;51.030;7.024;2022-08-25T04:45:08;7.43;;;2.90;;
72127;SDS011;60000;51.030;7.024;2022-08-25T04:47:37;9.03;;;4.07;;
72127;SDS011;60000;51.030;7.024;2022-08-25T04:50:04;8.52;;;3.30;;
72127;SDS011;60000;51.030;7.024;2022-08-25T04:52:30;7.30;;;3.45;;
72127;SDS011;60000;51.030;7.024;2022-08-25T04:54:56;8.07;;;3.00;;
72127;SDS011;60000;51.030;7.024;2022-08-25T04:57:21;6.77;;;3.03;;
72127;SDS011;60000;51.030;7.024;2022-08-25T04:59:46;7.03;;;2.90;;
72127;SDS011;60000;51.030;7.024;2022-08-25T05:02:12;8.57;;;2.80;;
72127;SDS011;60000;51.030;7.024;2022-08-25T05:04:37;7.75;;;3.28;;
72127;SDS011;60000;51.030;7.024;2022-08-25T05:07:03;5.83;;;2.67;;
72127;SDS011;60000;51.030;7.024;2022-08-25T05:09:29;9.73;;;2.70;;
72127;SDS011;60000;51.030;7.024;2022-08-25T05:11:55;7.53;;;2.70;;
72127;SDS011;60000;51.030;7.024;2022-08-25T05:14:20;8.27;;;2.90;;
72127;SDS011;60000;51.030;7.024;2022-08-25T05:16:47;6.25;;;2.78;;
72127;SDS011;60000;51.030;7.024;2022-08-25T05:19:12;8.30;;;3.17;;
72127;SDS011;60000;51.030;7.024;2022-08-25T05:21:38;8.50;;;2.83;;
72127;SDS011;60000;51.030;7.024;2022-08-25T05:24:04;6.65;;;3.22;;
72127;SDS011;60000;51.030;7.024;2022-08-25T05:26:30;8.13;;;2.87;;
72127;SDS011;60000;51.030;7.024;2022-08-25T05:28:58;5.15;;;2.40;;
72127;SDS011;60000;51.030;7.024;2022-08-25T05:31:25;7.10;;;2.92;;
72127;SDS011;60000;51.030;7.024;2022-08-25T05:33:52;6.22;;;2.70;;
72127;SDS011;60000;51.030;7.024;2022-08-25T05:36:17;7.20;;;2.77;;
72127;SDS011;60000;51.030;7.024;2022-08-25T05:38:44;6.70;;;2.83;;
72127;SDS011;60000;51.030;7.024;2022-08-25T05:41:10;9.97;;;4.07;;
72127;SDS011;60000;51.030;7.024;2022-08-25T05:43:40;10.10;;;4.57;;
72127;SDS011;60000;51.030;7.024;2022-08-25T05:46:06;9.35;;;3.55;;
72127;SDS011;60000;51.030;7.024;2022-08-25T05:48:32;10.27;;;5.10;;
72127;SDS011;60000;51.030;7.024;2022-08-25T05:50:59;11.53;;;4.67;;
72127;SDS011;60000;51.030;7.024;2022-08-25T05:53:26;8.60;;;4.05;;
72127;SDS011;60000;51.030;7.024;2022-08-25T05:55:53;9.95;;;4.90;;
72127;SDS011;60000;51.030;7.024;2022-08-25T05:58:20;7.60;;;3.65;;
72127;SDS011;60000;51.030;7.024;2022-08-25T06:00:47;8.48;;;3.20;;
72127;SDS011;60000;51.030;7.024;2022-08-25T06:03:13;6.80;;;3.07;;
72127;SDS011;60000;51.030;7.024;2022-08-25T06:05:39;6.87;;;3.27;;
72127;SDS011;60000;51.030;7.024;2022-08-25T06:08:05;7.90;;;2.90;;
72127;SDS011;60000;51.030;7.024;2022-08-25T06:10:30;8.75;;;3.70;;
72127;SDS011;60000;51.030;7.024;2022-08-25T06:12:56;13.60;;;4.73;;
72127;SDS011;60000;51.030;7.024;2022-08-25T06:15:22;9.67;;;4.83;;
72127;SDS011;60000;51.030;7.024;2022-08-25T06:17:48;10.93;;;4.07;;
72127;SDS011;60000;51.030;7.024;2022-08-25T06:20:24;7.20;;;2.90;;
72127;SDS011;60000;51.030;7.024;2022-08-25T06:22:51;7.10;;;2.83;;
72127;SDS011;60000;51.030;7.024;2022-08-25T06:25:18;9.43;;;3.10;;
72127;SDS011;60000;51.030;7.024;2022-08-25T06:27:46;7.47;;;3.00;;
72127;SDS011;60000;51.030;7.024;2022-08-25T06:30:18;8.98;;;2.55;;
72127;SDS011;60000;51.030;7.024;2022-08-25T06:32:46;6.38;;;2.80;;
72127;SDS011;60000;51.030;7.024;2022-08-25T06:35:13;8.27;;;2.78;;
72127;SDS011;60000;51.030;7.024;2022-08-25T06:37:42;6.25;;;2.70;;
72127;SDS011;60000;51.030;7.024;2022-08-25T06:40:07;8.73;;;3.27;;
72127;SDS011;60000;51.030;7.024;2022-08-25T06:42:34;8.70;;;2.97;;
72127;SDS011;60000;51.030;7.024;2022-08-25T06:45:00;7.60;;;2.90;;
72127;SDS011;60000;51.030;7.024;2022-08-25T06:47:25;6.67;;;3.20;;
72127;SDS011;60000;51.030;7.024;2022-08-25T06:49:51;7.38;;;3.72;;
72127;SDS011;60000;51.030;7.024;2022-08-25T06:52:16;8.13;;;2.47;;
72127;SDS011;60000;51.030;7.024;2022-08-25T06:54:42;6.33;;;2.80;;
72127;SDS011;60000;51.030;7.024;2022-08-25T06:57:07;9.27;;;2.90;;
72127;SDS011;60000;51.030;7.024;2022-08-25T06:59:33;6.55;;;3.05;;
72127;SDS011;60000;51.030;7.024;2022-08-25T07:02:01;6.00;;;2.63;;
72127;SDS011;60000;51.030;7.024;2022-08-25T07:04:27;6.97;;;2.70;;
72127;SDS011;60000;51.030;7.024;2022-08-25T07:06:53;7.32;;;2.45;;
72127;SDS011;60000;51.030;7.024;2022-08-25T07:09:18;6.50;;;2.77;;
72127;SDS011;60000;51.030;7.024;2022-08-25T07:11:44;6.40;;;2.70;;
72127;SDS011;60000;51.030;7.024;2022-08-25T07:14:10;7.03;;;3.00;;
72127;SDS011;60000;51.030;7.024;2022-08-25T07:16:37;6.97;;;2.90;;
72127;SDS011;60000;51.030;7.024;2022-08-25T07:19:04;6.05;;;2.78;;
72127;SDS011;60000;51.030;7.024;2022-08-25T07:21:30;7.03;;;2.80;;
72127;SDS011;60000;51.030;7.024;2022-08-25T07:23:57;7.53;;;2.90;;
72127;SDS011;60000;51.030;7.024;2022-08-25T07:26:25;6.28;;;2.80;;
72127;SDS011;60000;51.030;7.024;2022-08-25T07:28:52;5.83;;;2.70;;
72127;SDS011;60000;51.030;7.024;2022-08-25T07:31:18;6.78;;;2.67;;
72127;SDS011;60000;51.030;7.024;2022-08-25T07:33:43;7.53;;;2.60;;
72127;SDS011;60000;51.030;7.024;2022-08-25T07:36:27;7.32;;;3.10;;
72127;SDS011;60000;51.030;7.024;2022-08-25T07:38:53;6.22;;;2.88;;
72127;SDS011;60000;51.030;7.024;2022-08-25T07:41:19;6.03;;;2.70;;
72127;SDS011;60000;51.030;7.024;2022-08-25T07:43:44;8.83;;;2.70;;
72127;SDS011;60000;51.030;7.024;2022-08-25T07:46:11;8.70;;;3.00;;
72127;SDS011;60000;51.030;7.024;2022-08-25T07:48:36;8.13;;;2.70;;
72127;SDS011;60000;51.030;7.024;2022-08-25T07:51:06;6.37;;;2.77;;
72127;SDS011;60000;51.030;7.024;2022-08-25T07:53:33;7.07;;;2.58;;
72127;SDS011;60000;51.030;7.024;2022-08-25T07:55:58;6.43;;;2.80;;
72127;SDS011;60000;51.030;7.024;2022-08-25T07:58:23;5.53;;;2.47;;
72127;SDS011;60000;51.030;7.024;2022-08-25T08:00:49;5.87;;;2.50;;
72127;SDS011;60000;51.030;7.024;2022-08-25T08:03:17;6.47;;;2.60;;
72127;SDS011;60000;51.030;7.024;2022-08-25T08:05:44;6.88;;;2.95;;
72127;SDS011;60000;51.030;7.024;2022-08-25T08:08:09;7.23;;;2.47;;
72127;SDS011;60000;51.030;7.024;2022-08-25T08:10:37;7.90;;;2.70;;
72127;SDS011;60000;51.030;7.024;2022-08-25T08:13:03;5.70;;;2.17;;
72127;SDS011;60000;51.030;7.024;2022-08-25T08:15:29;7.07;;;2.97;;
72127;SDS011;60000;51.030;7.024;2022-08-25T08:17:54;6.47;;;2.40;;
72127;SDS011;60000;51.030;7.024;2022-08-25T08:20:19;5.20;;;2.30;;
72127;SDS011;60000;51.030;7.024;2022-08-25T08:22:45;7.07;;;3.07;;
72127;SDS011;60000;51.030;7.024;2022-08-25T08:25:10;5.73;;;2.57;;
72127;SDS011;60000;51.030;7.024;2022-08-25T08:27:36;6.97;;;2.53;;
72127;SDS011;60000;51.030;7.024;2022-08-25T08:30:02;6.97;;;2.55;;
72127;SDS011;60000;51.030;7.024;2022-08-25T08:32:29;6.27;;;2.53;;
72127;SDS011;60000;51.030;7.024;2022-08-25T08:34:54;5.73;;;2.87;;
72127;SDS011;60000;51.030;7.024;2022-08-25T08:37:20;6.78;;;2.40;;
72127;SDS011;60000;51.030;7.024;2022-08-25T08:39:46;6.10;;;2.40;;
72127;SDS011;60000;51.030;7.024;2022-08-25T08:51:00;5.55;;;2.47;;
72127;SDS011;60000;51.030;7.024;2022-08-25T08:53:46;8.40;;;2.90;;
72127;SDS011;60000;51.030;7.024;2022-08-25T08:59:12;7.63;;;2.30;;
72127;SDS011;60000;51.030;7.024;2022-08-25T09:01:50;5.00;;;2.40;;
72127;SDS011;60000;51.030;7.024;2022-08-25T09:07:21;5.60;;;2.30;;
72127;SDS011;60000;51.030;7.024;2022-08-25T09:09:51;6.20;;;2.50;;
72127;SDS011;60000;51.030;7.024;2022-08-25T09:12:26;6.88;;;2.50;;
72127;SDS011;60000;51.030;7.024;2022-08-25T09:28:44;5.47;;;2.47;;
72127;SDS011;60000;51.030;7.024;2022-08-25T09:33:47;4.90;;;2.00;;
72127;SDS011;60000;51.030;7.024;2022-08-25T09:36:14;7.80;;;2.28;;
72127;SDS011;60000;51.030;7.024;2022-08-25T09:38:39;5.47;;;2.20;;
72127;SDS011;60000;51.030;7.024;2022-08-25T09:41:05;6.97;;;2.40;;
72127;SDS011;60000;51.030;7.024;2022-08-25T09:46:01;7.20;;;2.42;;
72127;SDS011;60000;51.030;7.024;2022-08-25T09:48:33;6.78;;;2.30;;
72127;SDS011;60000;51.030;7.024;2022-08-25T09:51:20;4.60;;;2.00;;
72127;SDS011;60000;51.030;7.024;2022-08-25T09:53:58;5.75;;;2.20;;
72127;SDS011;60000;51.030;7.024;2022-08-25T09:56:28;5.50;;;2.17;;
72127;SDS011;60000;51.030;7.024;2022-08-25T09:59:20;5.57;;;2.00;;
72127;SDS011;60000;51.030;7.024;2022-08-25T10:02:00;5.03;;;2.20;;
72127;SDS011;60000;51.030;7.024;2022-08-25T10:04:29;4.75;;;2.10;;
72127;SDS011;60000;51.030;7.024;2022-08-25T10:07:03;5.40;;;2.45;;
72127;SDS011;60000;51.030;7.024;2022-08-25T10:09:49;7.27;;;1.73;;
72127;SDS011;60000;51.030;7.024;2022-08-25T10:14:56;5.05;;;2.03;;
72127;SDS011;60000;51.030;7.024;2022-08-25T10:17:23;4.53;;;1.70;;
72127;SDS011;60000;51.030;7.024;2022-08-25T10:19:52;5.18;;;2.28;;
72127;SDS011;60000;51.030;7.024;2022-08-25T10:22:40;4.38;;;1.92;;
72127;SDS011;60000;51.030;7.024;2022-08-25T10:25:10;7.30;;;2.40;;
72127;SDS011;60000;51.030;7.024;2022-08-25T10:32:44;6.22;;;2.22;;
72127;SDS011;60000;51.030;7.024;2022-08-25T10:35:25;5.93;;;1.90;;
72127;SDS011;60000;51.030;7.024;2022-08-25T10:43:52;7.55;;;2.10;;
72127;SDS011;60000;51.030;7.024;2022-08-25T10:46:44;6.00;;;2.10;;
72127;SDS011;60000;51.030;7.024;2022-08-25T10:49:23;6.10;;;1.90;;
72127;SDS011;60000;51.030;7.024;2022-08-25T11:00:31;5.47;;;2.15;;
72127;SDS011;60000;51.030;7.024;2022-08-25T11:05:42;4.97;;;2.13;;
72127;SDS011;60000;51.030;7.024;2022-08-25T11:13:52;4.63;;;2.13;;
72127;SDS011;60000;51.030;7.024;2022-08-25T11:16:37;5.50;;;2.33;;
72127;SDS011;60000;51.030;7.024;2022-08-25T11:19:08;5.97;;;2.53;;
72127;SDS011;60000;51.030;7.024;2022-08-25T11:27:12;4.27;;;1.80;;
72127;SDS011;60000;51.030;7.024;2022-08-25T11:29:42;5.97;;;1.88;;
72127;SDS011;60000;51.030;7.024;2022-08-25T11:32:18;5.20;;;2.30;;
72127;SDS011;60000;51.030;7.024;2022-08-25T11:34:46;7.70;;;2.20;;
72127;SDS011;60000;51.030;7.024;2022-08-25T11:37:23;6.30;;;2.03;;
72127;SDS011;60000;51.030;7.024;2022-08-25T11:50:54;5.85;;;2.40;;
72127;SDS011;60000;51.030;7.024;2022-08-25T11:53:35;5.85;;;2.25;;
72127;SDS011;60000;51.030;7.024;2022-08-25T11:56:06;6.07;;;2.67;;
72127;SDS011;60000;51.030;7.024;2022-08-25T12:01:12;6.05;;;2.00;;
72127;SDS011;60000;51.030;7.024;2022-08-25T12:04:29;5.03;;;2.40;;
72127;SDS011;60000;51.030;7.024;2022-08-25T12:09:33;4.90;;;2.10;;
72127;SDS011;60000;51.030;7.024;2022-08-25T12:15:13;5.78;;;2.35;;
72127;SDS011;60000;51.030;7.024;2022-08-25T12:17:47;5.75;;;2.40;;
72127;SDS011;60000;51.030;7.024;2022-08-25T12:23:16;6.33;;;2.33;;
72127;SDS011;60000;51.030;7.024;2022-08-25T12:25:52;5.50;;;2.30;;
72127;SDS011;60000;51.030;7.024;2022-08-25T12:31:40;6.18;;;2.20;;
72127;SDS011;60000;51.030;7.024;2022-08-25T12:37:03;6.03;;;2.60;;
72127;SDS011;60000;51.030;7.024;2022-08-25T12:39:35;5.07;;;2.40;;
72127;SDS011;60000;51.030;7.024;2022-08-25T12:42:06;5.40;;;2.60;;
72127;SDS011;60000;51.030;7.024;2022-08-25T12:45:06;5.63;;;2.47;;
72127;SDS011;60000;51.030;7.024;2022-08-25T12:47:40;5.93;;;2.25;;
72127;SDS011;60000;51.030;7.024;2022-08-25T12:50:28;4.27;;;2.07;;
72127;SDS011;60000;51.030;7.024;2022-08-25T12:55:58;5.72;;;2.28;;
72127;SDS011;60000;51.030;7.024;2022-08-25T12:58:27;5.43;;;2.65;;
72127;SDS011;60000;51.030;7.024;2022-08-25T13:01:09;5.40;;;2.35;;
72127;SDS011;60000;51.030;7.024;2022-08-25T13:07:08;5.50;;;2.63;;
72127;SDS011;60000;51.030;7.024;2022-08-25T13:09:48;5.95;;;2.50;;
72127;SDS011;60000;51.030;7.024;2022-08-25T13:14:58;5.75;;;2.40;;
72127;SDS011;60000;51.030;7.024;2022-08-25T13:17:32;5.30;;;2.20;;
72127;SDS011;60000;51.030;7.024;2022-08-25T13:20:16;5.80;;;2.50;;
72127;SDS011;60000;51.030;7.024;2022-08-25T13:22:47;5.68;;;2.22;;
72127;SDS011;60000;51.030;7.024;2022-08-25T13:25:19;5.50;;;2.45;;
72127;SDS011;60000;51.030;7.024;2022-08-25T13:27:47;7.32;;;4.43;;
72127;SDS011;60000;51.030;7.024;2022-08-25T13:30:49;5.80;;;2.20;;
72127;SDS011;60000;51.030;7.024;2022-08-25T13:33:15;5.72;;;2.33;;
72127;SDS011;60000;51.030;7.024;2022-08-25T13:35:52;5.38;;;2.15;;
72127;SDS011;60000;51.030;7.024;2022-08-25T13:38:38;4.93;;;2.25;;
72127;SDS011;60000;51.030;7.024;2022-08-25T13:41:05;7.35;;;2.40;;
72127;SDS011;60000;51.030;7.024;2022-08-25T13:43:32;5.77;;;2.30;;
72127;SDS011;60000;51.030;7.024;2022-08-25T13:45:59;5.97;;;2.50;;
72127;SDS011;60000;51.030;7.024;2022-08-25T13:48:38;7.30;;;2.90;;
72127;SDS011;60000;51.030;7.024;2022-08-25T13:51:06;6.13;;;2.37;;
72127;SDS011;60000;51.030;7.024;2022-08-25T13:53:40;5.55;;;2.55;;
72127;SDS011;60000;51.030;7.024;2022-08-25T13:56:12;8.38;;;2.30;;
72127;SDS011;60000;51.030;7.024;2022-08-25T13:58:48;6.82;;;2.70;;
72127;SDS011;60000;51.030;7.024;2022-08-25T14:01:24;5.20;;;2.50;;
72127;SDS011;60000;51.030;7.024;2022-08-25T14:03:52;6.13;;;2.40;;
72127;SDS011;60000;51.030;7.024;2022-08-25T14:06:22;4.97;;;2.20;;
72127;SDS011;60000;51.030;7.024;2022-08-25T14:11:28;5.65;;;2.25;;
72127;SDS011;60000;51.030;7.024;2022-08-25T14:14:08;8.98;;;2.67;;
72127;SDS011;60000;51.030;7.024;2022-08-25T14:16:45;4.70;;;2.15;;
72127;SDS011;60000;51.030;7.024;2022-08-25T14:19:16;6.25;;;2.38;;
72127;SDS011;60000;51.030;7.024;2022-08-25T14:21:43;5.53;;;2.10;;
72127;SDS011;60000;51.030;7.024;2022-08-25T14:24:08;5.60;;;2.20;;
72127;SDS011;60000;51.030;7.024;2022-08-25T14:26:40;5.53;;;2.22;;
72127;SDS011;60000;51.030;7.024;2022-08-25T14:29:05;5.27;;;2.30;;
72127;SDS011;60000;51.030;7.024;2022-08-25T14:31:32;7.40;;;2.27;;
72127;SDS011;60000;51.030;7.024;2022-08-25T14:36:50;6.07;;;2.00;;
72127;SDS011;60000;51.030;7.024;2022-08-25T14:39:16;5.20;;;2.25;;
72127;SDS011;60000;51.030;7.024;2022-08-25T14:41:42;6.13;;;2.27;;
72127;SDS011;60000;51.030;7.024;2022-08-25T14:44:10;6.68;;;2.05;;
72127;SDS011;60000;51.030;7.024;2022-08-25T14:46:45;4.72;;;1.95;;
72127;SDS011;60000;51.030;7.024;2022-08-25T14:49:23;5.30;;;2.15;;
72127;SDS011;60000;51.030;7.024;2022-08-25T14:51:54;5.57;;;1.92;;
72127;SDS011;60000;51.030;7.024;2022-08-25T14:54:21;12.53;;;2.43;;
72127;SDS011;60000;51.030;7.024;2022-08-25T14:56:50;5.10;;;2.40;;
72127;SDS011;60000;51.030;7.024;2022-08-25T14:59:15;6.03;;;2.07;;
72127;SDS011;60000;51.030;7.024;2022-08-25T15:01:41;5.85;;;2.33;;
72127;SDS011;60000;51.030;7.024;2022-08-25T15:04:08;5.47;;;1.80;;
72127;SDS011;60000;51.030;7.024;2022-08-25T15:06:36;4.97;;;2.30;;
72127;SDS011;60000;51.030;7.024;2022-08-25T15:09:04;5.07;;;1.80;;
72127;SDS011;60000;51.030;7.024;2022-08-25T15:11:36;5.50;;;2.00;;
72127;SDS011;60000;51.030;7.024;2022-08-25T15:14:14;6.63;;;2.40;;
72127;SDS011;60000;51.030;7.024;2022-08-25T15:16:41;5.03;;;2.03;;
72127;SDS011;60000;51.030;7.024;2022-08-25T15:19:09;5.20;;;2.10;;
72127;SDS011;60000;51.030;7.024;2022-08-25T15:21:38;7.60;;;2.00;;
72127;SDS011;60000;51.030;7.024;2022-08-25T15:24:04;4.70;;;2.05;;
72127;SDS011;60000;51.030;7.024;2022-08-25T15:26:30;6.18;;;2.70;;
72127;SDS011;60000;51.030;7.024;2022-08-25T15:28:58;7.03;;;2.30;;
72127;SDS011;60000;51.030;7.024;2022-08-25T15:31:23;6.13;;;2.10;;
72127;SDS011;60000;51.030;7.024;2022-08-25T15:33:49;5.00;;;1.87;;
72127;SDS011;60000;51.030;7.024;2022-08-25T15:36:15;5.10;;;1.87;;
72127;SDS011;60000;51.030;7.024;2022-08-25T15:38:43;4.80;;;2.00;;
72127;SDS011;60000;51.030;7.024;2022-08-25T15:41:09;5.30;;;2.23;;
72127;SDS011;60000;51.030;7.024;2022-08-25T15:43:35;4.28;;;1.92;;
72127;SDS011;60000;51.030;7.024;2022-08-25T15:46:02;5.17;;;2.10;;
72127;SDS011;60000;51.030;7.024;2022-08-25T15:48:28;5.27;;;2.10;;
72127;SDS011;60000;51.030;7.024;2022-08-25T15:50:54;6.30;;;2.10;;
72127;SDS011;60000;51.030;7.024;2022-08-25T15:53:21;7.77;;;2.10;;
72127;SDS011;60000;51.030;7.024;2022-08-25T15:55:47;5.40;;;1.92;;
72127;SDS011;60000;51.030;7.024;2022-08-25T15:58:14;5.28;;;2.50;;
72127;SDS011;60000;51.030;7.024;2022-08-25T16:00:40;4.88;;;2.30;;
72127;SDS011;60000;51.030;7.024;2022-08-25T16:03:07;5.07;;;2.13;;
72127;SDS011;60000;51.030;7.024;2022-08-25T16:05:34;5.17;;;1.90;;
72127;SDS011;60000;51.030;7.024;2022-08-25T16:08:00;5.20;;;2.22;;
72127;SDS011;60000;51.030;7.024;2022-08-25T16:10:26;5.13;;;2.07;;
72127;SDS011;60000;51.030;7.024;2022-08-25T16:12:51;5.77;;;1.90;;
72127;SDS011;60000;51.030;7.024;2022-08-25T16:15:16;6.10;;;2.10;;
72127;SDS011;60000;51.030;7.024;2022-08-25T16:17:42;5.33;;;2.00;;
72127;SDS011;60000;51.030;7.024;2022-08-25T16:20:07;5.37;;;2.00;;
72127;SDS011;60000;51.030;7.024;2022-08-25T16:22:33;4.82;;;1.90;;
72127;SDS011;60000;51.030;7.024;2022-08-25T16:24:58;5.37;;;2.20;;
72127;SDS011;60000;51.030;7.024;2022-08-25T16:27:26;6.32;;;1.98;;
72127;SDS011;60000;51.030;7.024;2022-08-25T16:29:51;7.90;;;2.00;;
72127;SDS011;60000;51.030;7.024;2022-08-25T16:32:17;5.20;;;2.17;;
72127;SDS011;60000;51.030;7.024;2022-08-25T16:34:43;4.40;;;1.80;;
72127;SDS011;60000;51.030;7.024;2022-08-25T16:37:08;5.80;;;1.90;;
72127;SDS011;60000;51.030;7.024;2022-08-25T16:39:34;5.38;;;1.95;;
72127;SDS011;60000;51.030;7.024;2022-08-25T16:42:00;5.57;;;2.17;;
72127;SDS011;60000;51.030;7.024;2022-08-25T16:44:25;4.97;;;1.87;;
72127;SDS011;60000;51.030;7.024;2022-08-25T16:46:51;5.07;;;1.88;;
72127;SDS011;60000;51.030;7.024;2022-08-25T16:49:18;5.75;;;1.95;;
72127;SDS011;60000;51.030;7.024;2022-08-25T16:51:44;4.00;;;1.63;;